Algona, IA

8:25 AM CST on February 24, 2017 (GMT -0600)
Algona Municipal

Weather History for KAXA - January, 2014

Change the Weather History Date:

Friday, January 24, 2014

  Actual Average Record
Temperature  
Mean Temperature 21 °F -  
Max Temperature 37 °F 23 °F 42 °F (2002)
Min Temperature 5 °F 9 °F -14 °F (2008)
Degree Days  
Heating Degree Days 44    
Moisture  
Dew Point 17 °F    
Average Humidity 70    
Maximum Humidity 93    
Minimum Humidity 52    
Precipitation  
Precipitation 0.00 in - - ()
Sea Level Pressure  
Sea Level Pressure 29.78 in    
Wind  
Wind Speed 20 mph (WSW)    
Max Wind Speed 29 mph    
Max Gust Speed 38 mph    
Visibility 10 miles    
Events      
Averages and records for this station are not official NWS values.
T = Trace of Precipitation, MM = Missing Value Source: NWS Daily Summary

Daily Weather History Graph

Daily Weather History Graph

Search for Another Location

Airport or City:

Trip Planner

Search our weather history database for the weather conditions in past years. The results will help you decide how hot, cold, wet, or windy it might be!

Date:

Astronomy

Jan. 24, 2014 Rise Set
Actual Time 7:39 AM CST 5:19 PM CST
Civil Twilight 7:09 AM CST 5:49 PM CST
Nautical Twilight 6:34 AM CST 6:24 PM CST
Astronomical Twilight 6:00 AM CST 6:58 PM CST
Moon 1:05 AM CST 11:39 AM CST
Length of Visible Light 10h 40m
Length of Day
9h 39m
Last Quarter, 44% of the Moon is Illuminated
Jan 24
Last Quarter
Jan 30
New
Feb 6
First Quarter
Feb 14
Full
Feb 22
Last Quarter

Hourly Weather History & Observations

Time (CST) Temp. Windchill Dew Point Humidity Pressure Visibility Wind Dir Wind Speed Gust Speed Precip Events Conditions
12:15 AM 5.0 °F -15.2 °F -7.6 °F 56% 30.24 in 10.0 mi SSW 19.6 mph - N/A   Clear
12:35 AM 5.0 °F -14.2 °F -5.8 °F 61% 30.22 in 10.0 mi SSW 17.3 mph 24.2 mph N/A   Clear
12:55 AM 5.0 °F -16.2 °F -5.8 °F 61% 30.20 in 10.0 mi SSW 21.9 mph - N/A   Clear
1:15 AM 6.8 °F -11.8 °F -5.8 °F 56% 30.19 in 10.0 mi SSW 17.3 mph - N/A   Clear
1:35 AM 6.8 °F -12.4 °F -5.8 °F 56% 30.17 in 10.0 mi SSW 18.4 mph - N/A   Clear
1:55 AM 8.6 °F -10.0 °F -4.0 °F 57% 30.14 in 10.0 mi SSW 18.4 mph - N/A   Clear
2:15 AM 8.6 °F -10.0 °F -4.0 °F 57% 30.13 in 10.0 mi SSW 18.4 mph - N/A   Clear
2:35 AM 10.4 °F -8.2 °F -4.0 °F 52% 30.12 in 10.0 mi SSW 19.6 mph 26.5 mph N/A   Clear
2:55 AM 10.4 °F -9.1 °F -4.0 °F 52% 30.09 in 10.0 mi SSW 21.9 mph 29.9 mph N/A   Clear
3:15 AM 10.4 °F -9.1 °F -2.2 °F 57% 30.05 in 10.0 mi SSW 21.9 mph 29.9 mph N/A   Partly Cloudy
3:35 AM 12.2 °F -6.3 °F -2.2 °F 53% 30.04 in 10.0 mi SSW 20.7 mph 26.5 mph N/A   Clear
3:55 AM 12.2 °F -8.2 °F -0.4 °F 57% 30.01 in 10.0 mi SW 26.5 mph 33.4 mph N/A   Scattered Clouds
4:15 AM 14.0 °F -6.2 °F -0.4 °F 53% 29.99 in 10.0 mi SW 27.6 mph 35.7 mph N/A   Mostly Cloudy
4:35 AM 14.0 °F -6.2 °F 1.4 °F 57% 29.98 in 10.0 mi SW 27.6 mph 38.0 mph N/A   Overcast
4:55 AM 15.8 °F -3.4 °F 1.4 °F 53% 29.98 in 10.0 mi SW 26.5 mph 38.0 mph N/A   Overcast
5:15 AM 15.8 °F -3.1 °F 3.2 °F 58% 29.94 in 10.0 mi SW 25.3 mph 36.8 mph N/A   Overcast
5:35 AM 15.8 °F -1.5 °F 3.2 °F 58% 29.94 in 10.0 mi SW 20.7 mph 29.9 mph N/A   Overcast
5:55 AM 15.8 °F -2.7 °F 5.0 °F 62% 29.91 in 10.0 mi SW 24.2 mph 32.2 mph N/A   Overcast
6:15 AM 17.6 °F -1.0 °F 5.0 °F 58% 29.89 in 10.0 mi SW 26.5 mph 32.2 mph N/A   Overcast
6:35 AM 17.6 °F -1.3 °F 6.8 °F 63% 29.89 in 10.0 mi SW 27.6 mph - N/A   Overcast
6:55 AM 17.6 °F -1.6 °F 6.8 °F 63% 29.86 in 10.0 mi SW 28.8 mph - N/A   Overcast
7:15 AM 17.6 °F 0.5 °F 6.8 °F 63% 29.88 in 10.0 mi SW 21.9 mph 27.6 mph N/A   Overcast
7:35 AM 19.4 °F 1.8 °F 6.8 °F 58% 29.86 in 10.0 mi SW 25.3 mph 32.2 mph N/A   Overcast
7:55 AM 19.4 °F 2.8 °F 6.8 °F 58% 29.85 in 10.0 mi SW 21.9 mph 29.9 mph N/A   Overcast
8:15 AM 19.4 °F 3.2 °F 8.6 °F 63% 29.85 in 10.0 mi SW 20.7 mph 26.5 mph N/A   Overcast
8:35 AM 19.4 °F 4.1 °F 8.6 °F 63% 29.83 in 10.0 mi SW 18.4 mph 26.5 mph N/A   Overcast
8:55 AM 19.4 °F 4.1 °F 10.4 °F 68% 29.84 in 10.0 mi SW 18.4 mph 26.5 mph N/A   Overcast
9:15 AM 21.2 °F 6.8 °F 10.4 °F 63% 29.82 in 10.0 mi SW 17.3 mph 23.0 mph N/A   Overcast
9:35 AM 21.2 °F 6.8 °F 10.4 °F 63% 29.81 in 10.0 mi SW 17.3 mph - N/A   Mostly Cloudy
9:55 AM 24.8 °F 10.7 °F 12.2 °F 59% 29.80 in 10.0 mi SW 19.6 mph 26.5 mph N/A   Mostly Cloudy
10:15 AM 24.8 °F 9.6 °F 12.2 °F 59% 29.80 in 10.0 mi WSW 23.0 mph 28.8 mph N/A   Mostly Cloudy
10:35 AM 26.6 °F 13.1 °F 14.0 °F 59% 29.79 in 10.0 mi WSW 19.6 mph 25.3 mph N/A   Partly Cloudy
10:55 AM 28.4 °F 15.4 °F 15.8 °F 59% 29.78 in 10.0 mi WSW 19.6 mph - N/A   Partly Cloudy
11:15 AM 28.4 °F 15.8 °F 15.8 °F 59% 29.77 in 10.0 mi WSW 18.4 mph - N/A   Clear
11:35 AM 30.2 °F 17.8 °F 17.6 °F 60% 29.76 in 10.0 mi WSW 19.6 mph 25.3 mph N/A   Clear
11:55 AM 32.0 °F 19.5 °F 19.4 °F 60% 29.74 in 10.0 mi West 21.9 mph - N/A   Clear
12:15 PM 33.8 °F 22.8 °F 21.2 °F 60% 29.73 in 10.0 mi West 18.4 mph 24.2 mph N/A   Clear
12:35 PM 33.8 °F 22.8 °F 23.0 °F 65% 29.72 in 10.0 mi West 18.4 mph 24.2 mph N/A   Clear
12:55 PM 35.6 °F 24.8 °F 24.8 °F 65% 29.71 in 10.0 mi West 19.6 mph - N/A   Partly Cloudy
1:15 PM 35.6 °F 24.2 °F 24.8 °F 65% 29.68 in 10.0 mi West 21.9 mph - N/A   Mostly Cloudy
1:35 PM 35.6 °F 23.7 °F 26.6 °F 70% 29.67 in 10.0 mi West 24.2 mph - N/A   Mostly Cloudy
1:55 PM 35.6 °F 23.7 °F 28.4 °F 75% 29.65 in 10.0 mi West 24.2 mph - N/A   Partly Cloudy
2:15 PM 35.6 °F 23.2 °F 28.4 °F 75% 29.65 in 10.0 mi West 26.5 mph - N/A   Clear
2:35 PM 35.6 °F 24.2 °F 28.4 °F 75% 29.64 in 10.0 mi West 21.9 mph 31.1 mph N/A   Clear
2:55 PM 35.6 °F 24.5 °F 28.4 °F 75% 29.63 in 10.0 mi West 20.7 mph 31.1 mph N/A   Clear
3:15 PM 35.6 °F 24.2 °F 28.4 °F 75% 29.63 in 10.0 mi West 21.9 mph 27.6 mph N/A   Clear
3:35 PM 37.4 °F 26.9 °F 30.2 °F 75% 29.62 in 10.0 mi West 20.7 mph - N/A   Clear
3:55 PM 35.6 °F 25.5 °F 30.2 °F 81% 29.60 in 10.0 mi West 17.3 mph 24.2 mph N/A   Scattered Clouds
4:15 PM 37.4 °F 26.9 °F 30.2 °F 75% 29.59 in 10.0 mi West 20.7 mph 26.5 mph N/A   Mostly Cloudy
4:35 PM 37.4 °F 26.6 °F 30.2 °F 75% 29.58 in 10.0 mi West 21.9 mph - N/A   Overcast
4:55 PM 37.4 °F 27.5 °F 30.2 °F 75% 29.58 in 10.0 mi West 18.4 mph 24.2 mph N/A   Overcast
5:15 PM 37.4 °F 28.2 °F 30.2 °F 75% 29.58 in 10.0 mi West 16.1 mph - N/A   Overcast
5:35 PM 37.4 °F 28.9 °F 30.2 °F 75% 29.59 in 10.0 mi West 13.8 mph - N/A   Overcast
5:55 PM 35.6 °F 24.0 °F 32.0 °F 87% 29.58 in 4.0 mi West 23.0 mph 29.9 mph N/A   Light Drizzle
6:15 PM 35.6 °F 24.8 °F 33.8 °F 93% 29.57 in 5.0 mi West 19.6 mph 25.3 mph N/A   Overcast
6:35 PM 35.6 °F 25.5 °F 33.8 °F 93% 29.57 in 9.0 mi West 17.3 mph 25.3 mph N/A   Overcast
6:55 PM 35.6 °F 25.2 °F 33.8 °F 93% 29.56 in 3.0 mi West 18.4 mph - N/A   Overcast
7:15 PM 35.6 °F 25.9 °F 33.8 °F 93% 29.55 in 5.0 mi West 16.1 mph - N/A   Overcast
7:35 PM 37.4 °F 27.8 °F 35.6 °F 93% 29.56 in 10.0 mi West 17.3 mph - N/A   Overcast
7:55 PM 37.4 °F 28.5 °F 35.6 °F 93% 29.56 in 10.0 mi WNW 15.0 mph 21.9 mph N/A   Overcast
8:15 PM 37.4 °F 28.2 °F 35.6 °F 93% 29.56 in - NW 16.1 mph - N/A   Overcast
8:35 PM 37.4 °F 28.2 °F 33.8 °F 87% 29.55 in 9.0 mi NW 16.1 mph 24.2 mph N/A   Overcast
8:55 PM 37.4 °F 26.9 °F 33.8 °F 87% 29.55 in 10.0 mi NW 20.7 mph 26.5 mph N/A   Overcast
9:15 PM 37.4 °F 27.8 °F 33.8 °F 87% 29.56 in 10.0 mi NW 17.3 mph 26.5 mph N/A   Overcast
9:35 PM 37.4 °F 26.6 °F 33.8 °F 87% 29.56 in 10.0 mi NW 21.9 mph 28.8 mph N/A   Overcast
9:55 PM 35.6 °F 23.4 °F 32.0 °F 87% 29.58 in 10.0 mi NNW 25.3 mph 34.5 mph N/A   Overcast
10:10 PM 35.6 °F 24.8 °F 32.0 °F 87% 29.59 in 10.0 mi NNW 19.6 mph 29.9 mph N/A   Overcast
10:35 PM 35.6 °F 24.8 °F 32.0 °F 87% 29.60 in 10.0 mi NNW 19.6 mph 27.6 mph N/A   Mostly Cloudy
10:55 PM 33.8 °F 24.8 °F 30.2 °F 87% 29.61 in 10.0 mi NNW 12.7 mph 19.6 mph N/A   Overcast
11:15 PM 33.8 °F 24.8 °F 30.2 °F 87% 29.62 in 10.0 mi NW 12.7 mph - N/A   Overcast
11:35 PM 33.8 °F 23.9 °F 28.4 °F 81% 29.62 in 10.0 mi NW 15.0 mph - N/A   Overcast
11:55 PM 33.8 °F 23.9 °F 28.4 °F 81% 29.62 in 10.0 mi NW 15.0 mph - N/A   Overcast